Time;durP1;ratioP1;P1;durP2;ratioP2;P2;SDS_P1;SDS_P2;PMS_P1;PMS_P2;Temp;Humidity;BMP_temperature;BMP_pressure;BME280_temperature;BME280_humidity;BME280_pressure;Samples;Min_cycle;Max_cycle;Signal;HPM_P1;HPM_P2
2023/12/07 00:01:31;;;;;;;42.60;24.30;;;;;;;-6.34;84.44;100673.50;106578;1254;72610;-75
2023/12/07 00:03:59;;;;;;;42.30;23.00;;;;;;;-6.39;84.42;100674.16;106372;1256;59588;-76
2023/12/07 00:06:27;;;;;;;40.00;22.90;;;;;;;-6.45;84.41;100679.14;106364;1264;59662;-77
2023/12/07 00:08:54;;;;;;;37.10;22.90;;;;;;;-6.50;84.55;100678.04;106334;1253;72596;-78
2023/12/07 00:11:23;;;;;;;39.40;23.60;;;;;;;-6.44;84.37;100677.40;106679;1254;69027;-77
2023/12/07 00:13:50;;;;;;;36.70;22.90;;;;;;;-6.35;84.10;100677.31;106674;1254;71103;-79
2023/12/07 00:16:18;;;;;;;32.80;21.20;;;;;;;-6.35;83.97;100681.98;106769;1254;59788;-77
2023/12/07 00:18:45;;;;;;;49.60;23.60;;;;;;;-6.39;84.22;100684.68;107018;1254;59620;-74
2023/12/07 00:21:13;;;;;;;41.10;23.90;;;;;;;-6.44;84.43;100680.84;106809;1258;71830;-76
2023/12/07 00:23:40;;;;;;;39.20;23.40;;;;;;;-6.51;84.60;100682.03;106459;1256;69065;-77
2023/12/07 00:26:08;;;;;;;41.60;24.40;;;;;;;-6.56;84.47;100680.79;106324;1257;72685;-78
2023/12/07 00:28:36;;;;;;;39.60;23.50;;;;;;;-6.60;84.60;100683.45;106640;1253;62165;-78
2023/12/07 00:31:03;;;;;;;42.80;23.90;;;;;;;-6.63;84.71;100682.50;106405;1253;60061;-75
2023/12/07 00:33:31;;;;;;;37.90;22.20;;;;;;;-6.56;84.51;100682.33;106377;1254;73091;-77
2023/12/07 00:35:58;;;;;;;37.40;21.20;;;;;;;-6.46;84.08;100677.10;106249;1259;71583;-75
2023/12/07 00:38:26;;;;;;;36.10;21.20;;;;;;;-6.50;83.93;100676.31;107105;1252;72662;-73
2023/12/07 00:40:54;;;;;;;38.60;22.40;;;;;;;-6.57;84.48;100674.76;108253;1254;58515;-78
2023/12/07 00:43:21;;;;;;;38.50;23.40;;;;;;;-6.62;84.46;100672.83;106929;1259;59736;-79
2023/12/07 00:45:49;;;;;;;39.40;23.90;;;;;;;-6.66;84.67;100672.05;106828;1259;70823;-80
2023/12/07 00:48:16;;;;;;;44.00;24.90;;;;;;;-6.69;84.62;100670.93;107416;1254;70283;-79
2023/12/07 00:50:44;;;;;;;44.80;25.30;;;;;;;-6.72;84.76;100672.71;106362;1254;71042;-77
2023/12/07 00:53:11;;;;;;;39.90;23.70;;;;;;;-6.63;84.39;100673.19;106296;1254;60412;-77
2023/12/07 00:55:40;;;;;;;42.70;24.00;;;;;;;-6.53;84.14;100671.56;106205;1256;59522;-75
2023/12/07 00:58:07;;;;;;;43.70;26.60;;;;;;;-6.54;84.35;100672.29;106502;1253;71759;-75
2023/12/07 01:00:36;;;;;;;47.20;27.10;;;;;;;-6.58;84.57;100675.80;106344;1253;70470;-76
2023/12/07 01:03:05;;;;;;;45.60;26.50;;;;;;;-6.60;84.71;100679.66;106260;1254;72589;-76
2023/12/07 01:05:33;;;;;;;46.50;25.50;;;;;;;-6.65;84.53;100674.97;106460;1254;59672;-75
2023/12/07 01:08:01;;;;;;;42.50;25.10;;;;;;;-6.70;84.64;100670.08;106564;1254;59708;-78
2023/12/07 01:10:28;;;;;;;39.80;21.50;;;;;;;-6.76;84.50;100668.48;106313;1254;72769;-76
2023/12/07 01:12:56;;;;;;;41.30;23.00;;;;;;;-6.77;84.01;100665.41;106139;1254;70131;-78
2023/12/07 01:15:24;;;;;;;42.90;24.40;;;;;;;-6.68;83.90;100665.21;106137;1254;72657;-78
2023/12/07 01:17:51;;;;;;;37.20;21.20;;;;;;;-6.70;83.69;100666.13;106110;1254;60692;-76
2023/12/07 01:20:21;;;;;;;34.80;19.90;;;;;;;-6.78;84.19;100669.58;106121;1254;60488;-78
2023/12/07 01:22:48;;;;;;;40.20;22.40;;;;;;;-6.87;84.01;100666.51;105838;1254;73825;-77
2023/12/07 01:25:21;;;;;;;38.90;22.00;;;;;;;-6.94;84.32;100666.84;105813;1254;69438;-76
2023/12/07 01:27:50;;;;;;;41.10;23.00;;;;;;;-6.99;84.47;100665.21;105809;1259;71681;-75
2023/12/07 01:30:17;;;;;;;43.40;21.90;;;;;;;-7.02;84.53;100662.04;105791;1254;60546;-75
2023/12/07 01:32:45;;;;;;;36.80;20.60;;;;;;;-6.96;84.40;100660.52;105797;1256;60488;-77
2023/12/07 01:35:12;;;;;;;33.40;19.10;;;;;;;-6.86;84.04;100660.29;106147;1256;72627;-77
2023/12/07 01:37:40;;;;;;;35.70;21.10;;;;;;;-6.88;83.93;100664.48;105918;1259;70305;-75
2023/12/07 01:40:10;;;;;;;35.40;20.30;;;;;;;-6.95;84.14;100662.52;105073;1254;1003056;-76
2023/12/07 01:42:38;;;;;;;41.20;22.20;;;;;;;-7.00;84.61;100666.45;105734;1254;60533;-77
2023/12/07 01:45:06;;;;;;;37.40;21.70;;;;;;;-7.06;84.40;100667.98;105778;1254;60543;-77
2023/12/07 01:47:35;;;;;;;36.50;19.60;;;;;;;-7.12;84.60;100666.37;105801;1254;72626;-77
2023/12/07 01:50:06;;;;;;;37.90;21.30;;;;;;;-7.17;84.59;100663.23;106080;1256;69032;-78
2023/12/07 01:52:38;;;;;;;41.20;22.30;;;;;;;-7.09;84.29;100661.30;105709;1254;71060;-76
2023/12/07 01:55:06;;;;;;;36.00;22.00;;;;;;;-7.00;83.92;100659.22;105982;1259;61058;-76
2023/12/07 01:57:34;;;;;;;34.40;19.90;;;;;;;-7.02;84.14;100661.86;105898;1254;60488;-77
2023/12/07 02:00:03;;;;;;;36.80;21.60;;;;;;;-7.08;84.38;100667.85;106223;1259;72819;-78
2023/12/07 02:02:32;;;;;;;33.40;19.20;;;;;;;-7.13;84.75;100674.48;106502;1254;69273;-77
2023/12/07 02:05:01;;;;;;;34.60;20.40;;;;;;;-7.18;84.55;100675.80;106910;1254;70618;-77
2023/12/07 02:07:28;;;;;;;40.50;21.30;;;;;;;-7.22;84.76;100676.23;107903;1254;62063;-77
2023/12/07 02:09:57;;;;;;;38.00;21.30;;;;;;;-7.26;84.95;100673.23;107838;1252;59871;-75
2023/12/07 02:12:29;;;;;;;39.20;22.90;;;;;;;-7.27;84.75;100675.48;107741;1253;72679;-75
2023/12/07 02:14:57;;;;;;;39.80;23.70;;;;;;;-7.17;84.43;100668.89;107920;1254;71075;-77
2023/12/07 02:17:53;;;;;;;39.80;22.70;;;;;;;-7.02;84.39;100671.33;106700;1258;71611;-77
2023/12/07 02:20:24;;;;;;;42.60;23.00;;;;;;;-7.01;84.42;100669.40;105982;1254;60507;-77
2023/12/07 02:22:53;;;;;;;44.80;25.40;;;;;;;-7.03;84.64;100669.29;105995;1254;60693;-75
2023/12/07 02:25:24;;;;;;;48.80;27.00;;;;;;;-7.05;85.08;100668.98;105732;1254;72423;-80
2023/12/07 02:27:52;;;;;;;49.70;27.10;;;;;;;-7.07;84.97;100665.75;106050;1258;69154;-79
2023/12/07 02:30:19;;;;;;;59.40;32.90;;;;;;;-7.13;84.81;100661.55;105968;1253;72654;-78
2023/12/07 02:32:47;;;;;;;63.60;31.70;;;;;;;-7.17;84.67;100659.26;105972;1254;61661;-78
2023/12/07 02:35:15;;;;;;;65.20;33.90;;;;;;;-7.11;84.35;100656.87;105680;1259;60456;-77
2023/12/07 02:37:48;;;;;;;64.10;33.80;;;;;;;-7.01;83.80;100655.79;105842;1258;73776;-77
2023/12/07 02:40:21;;;;;;;67.50;32.80;;;;;;;-7.04;84.09;100657.59;105943;1254;69493;-76
2023/12/07 02:42:49;;;;;;;61.70;30.70;;;;;;;-7.09;84.48;100661.64;105766;1254;72922;-75
2023/12/07 02:45:17;;;;;;;61.70;31.40;;;;;;;-7.13;84.50;100659.86;105804;1257;61010;-78
2023/12/07 02:47:45;;;;;;;52.20;28.90;;;;;;;-7.18;84.32;100658.09;105870;1252;60488;-75
2023/12/07 02:50:13;;;;;;;50.80;29.00;;;;;;;-7.23;84.41;100654.39;105845;1254;74121;-77
2023/12/07 02:52:41;;;;;;;50.90;27.60;;;;;;;-7.26;84.51;100656.19;105997;1256;69028;-76
2023/12/07 02:55:09;;;;;;;54.20;28.60;;;;;;;-7.18;84.19;100653.41;105796;1254;72544;-75
2023/12/07 02:57:37;;;;;;;44.60;25.80;;;;;;;-7.08;83.50;100657.52;105615;1253;60463;-77
2023/12/07 03:00:06;;;;;;;43.80;25.10;;;;;;;-7.12;83.75;100654.49;105765;1254;60487;-77
2023/12/07 03:02:38;;;;;;;43.10;24.10;;;;;;;-7.18;84.15;100656.00;105795;1255;72523;-78
2023/12/07 03:05:06;;;;;;;41.90;23.30;;;;;;;-7.26;84.26;100655.65;105834;1256;68863;-79
2023/12/07 03:07:34;;;;;;;42.20;22.70;;;;;;;-7.29;84.39;100664.51;105645;1255;71572;-79
2023/12/07 03:10:02;;;;;;;36.60;21.40;;;;;;;-7.33;84.42;100664.41;105885;1254;60530;-78
2023/12/07 03:12:31;;;;;;;44.60;23.90;;;;;;;-7.36;84.36;100666.36;105814;1253;60482;-76
2023/12/07 03:14:58;;;;;;;35.40;21.60;;;;;;;-7.27;84.01;100667.22;105766;1252;73161;-78
2023/12/07 03:17:26;;;;;;;36.20;21.20;;;;;;;-7.15;83.75;100668.85;105832;1259;68725;-80
2023/12/07 03:19:54;;;;;;;37.20;21.90;;;;;;;-7.14;84.13;100674.16;105855;1254;72099;-77
2023/12/07 03:22:21;;;;;;;41.50;22.00;;;;;;;-7.13;84.39;100679.66;106079;1254;60606;-80
2023/12/07 03:24:51;;;;;;;40.60;21.90;;;;;;;-7.14;84.58;100677.44;106056;1253;60600;-78
2023/12/07 03:27:19;;;;;;;39.50;20.20;;;;;;;-7.15;84.94;100673.84;105965;1254;74600;-79
2023/12/07 03:29:47;;;;;;;36.10;20.40;;;;;;;-7.14;84.45;100675.88;106094;1257;70365;-78
2023/12/07 03:32:14;;;;;;;37.70;22.20;;;;;;;-7.15;84.30;100679.18;105952;1254;71518;-76
2023/12/07 03:34:42;;;;;;;39.70;21.90;;;;;;;-7.05;84.00;100678.46;105790;1259;60547;-78
2023/12/07 03:37:09;;;;;;;38.00;22.20;;;;;;;-6.96;83.58;100673.58;105820;1260;60493;-74
2023/12/07 03:39:37;;;;;;;40.10;23.80;;;;;;;-6.96;83.57;100674.63;105911;1256;73871;-76
2023/12/07 03:42:05;;;;;;;41.00;22.60;;;;;;;-7.00;83.75;100681.10;106043;1254;68985;-76
2023/12/07 03:44:52;;;;;;;39.40;22.60;;;;;;;-7.05;83.70;100683.27;106152;1258;70819;-75
2023/12/07 03:47:20;;;;;;;37.70;20.60;;;;;;;-7.11;83.48;100677.89;107083;1252;60499;-75
2023/12/07 03:49:47;;;;;;;41.90;22.90;;;;;;;-7.19;83.30;100679.95;108092;1254;60622;-77
2023/12/07 03:52:15;;;;;;;40.70;22.10;;;;;;;-7.21;82.87;100681.02;106714;1254;72641;-75
2023/12/07 03:54:42;;;;;;;38.80;21.60;;;;;;;-7.12;82.77;100676.70;106327;1254;69980;-76
2023/12/07 03:57:10;;;;;;;37.10;20.30;;;;;;;-7.16;82.27;100673.70;106067;1259;71374;-79
2023/12/07 03:59:37;;;;;;;36.10;21.30;;;;;;;-7.25;82.59;100667.02;106010;1259;60514;-80
2023/12/07 04:02:05;;;;;;;36.60;21.70;;;;;;;-7.32;83.10;100666.29;106008;1255;60584;-77
2023/12/07 04:04:33;;;;;;;41.10;21.70;;;;;;;-7.38;83.04;100668.14;105864;1254;73788;-79
2023/12/07 04:07:00;;;;;;;38.10;21.30;;;;;;;-7.45;83.28;100676.20;105927;1254;69146;-76
2023/12/07 04:09:28;;;;;;;35.00;20.00;;;;;;;-7.53;83.47;100673.25;105846;1256;72671;-78
2023/12/07 04:11:55;;;;;;;42.40;24.30;;;;;;;-7.57;83.42;100674.53;105688;1259;60621;-78
2023/12/07 04:14:23;;;;;;;40.60;22.40;;;;;;;-7.51;83.30;100676.49;105846;1257;60421;-78
2023/12/07 04:16:51;;;;;;;33.00;19.70;;;;;;;-7.42;82.94;100670.45;105786;1255;72564;-78
2023/12/07 04:19:18;;;;;;;33.00;19.40;;;;;;;-7.44;83.08;100669.80;105847;1254;69021;-78
2023/12/07 04:21:46;;;;;;;38.20;20.90;;;;;;;-7.50;83.49;100670.44;105865;1259;72964;-80
2023/12/07 04:24:13;;;;;;;38.70;21.90;;;;;;;-7.55;83.47;100672.77;105825;1260;60520;-78
2023/12/07 04:26:41;;;;;;;40.50;22.50;;;;;;;-7.60;83.84;100668.06;105841;1254;60450;-79
2023/12/07 04:29:09;;;;;;;35.30;20.00;;;;;;;-7.64;83.99;100667.29;105825;1254;72639;-80
2023/12/07 04:31:36;;;;;;;36.40;20.00;;;;;;;-7.67;83.87;100667.52;105827;1254;69244;-79
2023/12/07 04:34:04;;;;;;;43.70;21.80;;;;;;;-7.62;83.64;100669.64;105777;1259;71736;-81
2023/12/07 04:36:32;;;;;;;41.80;24.30;;;;;;;-7.50;83.43;100663.05;105995;1253;60424;-79
2023/12/07 04:38:59;;;;;;;40.90;24.90;;;;;;;-7.49;83.66;100665.42;106236;1257;60865;-79
2023/12/07 04:41:27;;;;;;;40.00;23.30;;;;;;;-7.53;83.63;100665.52;106615;1254;72656;-79
2023/12/07 04:43:54;;;;;;;44.60;26.00;;;;;;;-7.57;83.92;100663.02;106520;1260;69221;-80
2023/12/07 04:46:22;;;;;;;40.50;24.90;;;;;;;-7.60;83.95;100661.70;106017;1258;71469;-80
2023/12/07 04:48:49;;;;;;;40.20;23.60;;;;;;;-7.61;84.26;100660.17;105991;1259;60347;-79
2023/12/07 04:51:17;;;;;;;47.30;26.00;;;;;;;-7.64;83.81;100660.59;105368;1257;1002467;-80
2023/12/07 04:53:44;;;;;;;38.40;22.20;;;;;;;-7.56;84.05;100661.80;106110;1257;73876;-77
2023/12/07 04:56:12;;;;;;;35.60;21.00;;;;;;;-7.43;83.47;100666.34;106010;1259;68831;-78
2023/12/07 04:58:40;;;;;;;35.50;21.40;;;;;;;-7.42;83.42;100668.21;106151;1256;72485;-78
2023/12/07 05:01:07;;;;;;;33.60;20.10;;;;;;;-7.44;83.67;100665.33;106481;1255;60456;-78
2023/12/07 05:03:35;;;;;;;36.80;21.50;;;;;;;-7.45;84.17;100665.52;106926;1254;60424;-80
2023/12/07 05:06:03;;;;;;;36.60;21.10;;;;;;;-7.45;84.17;100668.63;106735;1257;72653;-81
2023/12/07 05:08:31;;;;;;;39.50;22.50;;;;;;;-7.47;84.16;100670.89;106628;1259;68984;-79
2023/12/07 05:10:59;;;;;;;40.30;21.50;;;;;;;-7.48;83.81;100669.55;106239;1259;72692;-79
2023/12/07 05:13:26;;;;;;;37.50;19.90;;;;;;;-7.39;83.71;100667.98;105975;1256;62202;-78
2023/12/07 05:15:54;;;;;;;37.80;21.50;;;;;;;-7.24;83.39;100673.88;105961;1257;60504;-80
2023/12/07 05:18:21;;;;;;;33.90;20.00;;;;;;;-7.21;83.32;100673.98;105831;1254;74216;-79
2023/12/07 05:20:49;;;;;;;35.40;21.10;;;;;;;-7.22;83.33;100679.67;106506;1259;68983;-79
2023/12/07 05:23:17;;;;;;;36.70;21.20;;;;;;;-7.23;83.14;100680.39;109046;1254;71484;-78
2023/12/07 05:25:44;;;;;;;40.40;21.90;;;;;;;-7.25;83.02;100684.73;106386;1254;60418;-79
2023/12/07 05:28:12;;;;;;;33.50;19.50;;;;;;;-7.26;83.20;100681.84;105899;1256;60453;-78
2023/12/07 05:30:40;;;;;;;42.10;22.60;;;;;;;-7.29;83.05;100681.70;105817;1254;71831;-80
2023/12/07 05:33:10;;;;;;;43.10;23.40;;;;;;;-7.31;82.93;100683.65;105829;1257;68711;-78
2023/12/07 05:35:37;;;;;;;49.50;27.20;;;;;;;-7.21;82.88;100682.40;105790;1260;71510;-78
2023/12/07 05:38:05;;;;;;;44.60;23.50;;;;;;;-7.10;82.22;100677.86;105894;1257;60431;-77
2023/12/07 05:40:33;;;;;;;45.00;22.70;;;;;;;-7.11;82.28;100674.95;107291;1256;60338;-80
2023/12/07 05:43:01;;;;;;;42.70;22.70;;;;;;;-7.13;82.49;100674.15;106448;1253;72625;-77
2023/12/07 05:45:30;;;;;;;39.60;20.40;;;;;;;-7.15;82.31;100675.21;105814;1259;70691;-78
2023/12/07 05:47:57;;;;;;;37.10;20.80;;;;;;;-7.22;82.10;100680.52;105918;1257;72042;-78
2023/12/07 05:50:25;;;;;;;36.50;20.20;;;;;;;-7.27;82.27;100681.52;105959;1259;60473;-78
2023/12/07 05:52:53;;;;;;;34.70;20.80;;;;;;;-7.30;82.38;100680.36;106188;1258;60511;-80
2023/12/07 05:55:20;;;;;;;36.70;20.40;;;;;;;-7.32;82.36;100672.13;105716;1257;72598;-79
2023/12/07 05:57:48;;;;;;;31.10;18.30;;;;;;;-7.23;81.81;100673.34;105924;1254;70294;-78
2023/12/07 06:00:16;;;;;;;33.50;19.50;;;;;;;-7.13;81.51;100672.23;105877;1260;71434;-80
2023/12/07 06:02:43;;;;;;;37.20;21.20;;;;;;;-7.14;81.35;100671.59;106252;1260;60755;-83
2023/12/07 06:05:11;;;;;;;38.70;21.90;;;;;;;-7.20;81.27;100671.89;106269;1259;60457;-80
2023/12/07 06:07:39;;;;;;;36.50;20.70;;;;;;;-7.28;81.03;100674.63;106732;1257;72630;-80
2023/12/07 06:10:07;;;;;;;36.00;20.60;;;;;;;-7.33;81.25;100673.89;108150;1260;68766;-87
2023/12/07 06:12:35;;;;;;;36.40;21.20;;;;;;;-7.38;81.47;100675.35;106958;1257;72644;-84
2023/12/07 06:15:06;;;;;;;35.30;21.00;;;;;;;-7.39;81.57;100675.89;106806;1257;59842;-83
2023/12/07 06:17:35;;;;;;;35.00;20.80;;;;;;;-7.41;81.46;100673.00;106590;1255;60431;-83
2023/12/07 06:20:03;;;;;;;36.10;21.10;;;;;;;-7.35;80.84;100678.21;106170;1254;73887;-85
2023/12/07 06:22:31;;;;;;;33.40;19.20;;;;;;;-7.23;80.70;100684.52;106726;1260;70633;-84
2023/12/07 06:24:58;;;;;;;38.40;21.60;;;;;;;-7.20;80.96;100686.53;106800;1254;73496;-85
2023/12/07 06:27:26;;;;;;;33.70;19.90;;;;;;;-7.22;80.92;100685.52;106520;1254;60328;-85
2023/12/07 06:29:54;;;;;;;37.60;21.30;;;;;;;-7.21;81.33;100680.35;105718;1258;60336;-78
2023/12/07 06:32:21;;;;;;;41.20;21.80;;;;;;;-7.19;81.31;100678.23;105959;1253;72690;-81
2023/12/07 06:34:49;;;;;;;34.80;20.40;;;;;;;-7.19;81.36;100675.30;105957;1260;70772;-81
2023/12/07 06:37:17;;;;;;;38.20;21.30;;;;;;;-7.18;81.20;100681.14;106016;1254;72685;-80
2023/12/07 06:39:45;;;;;;;39.60;21.80;;;;;;;-7.21;80.96;100683.09;105891;1259;60419;-80
2023/12/07 06:42:13;;;;;;;35.90;19.00;;;;;;;-7.16;80.38;100677.45;105989;1257;60266;-80
2023/12/07 06:44:43;;;;;;;33.10;19.90;;;;;;;-7.04;80.12;100662.41;105948;1256;71604;-80
2023/12/07 06:47:10;;;;;;;40.20;21.20;;;;;;;-7.06;80.47;100659.86;106009;1264;70846;-77
2023/12/07 06:49:38;;;;;;;34.10;20.40;;;;;;;-7.02;80.41;100663.04;105938;1257;71416;-79
2023/12/07 06:52:18;;;;;;;35.70;20.80;;;;;;;-7.01;80.55;100656.66;105983;1259;60583;-80
2023/12/07 06:54:46;;;;;;;37.80;21.80;;;;;;;-7.01;80.62;100657.17;108033;1252;60540;-81
2023/12/07 06:57:14;;;;;;;34.00;19.40;;;;;;;-7.00;80.33;100656.63;109235;1254;73834;-82
2023/12/07 06:59:41;;;;;;;38.10;20.40;;;;;;;-6.99;80.34;100657.80;107472;1259;68761;-81
2023/12/07 07:02:09;;;;;;;35.20;20.50;;;;;;;-6.97;79.94;100657.77;105953;1259;71752;-81
2023/12/07 07:04:36;;;;;;;36.60;21.80;;;;;;;-6.84;79.91;100662.82;106069;1254;61656;-80
2023/12/07 07:07:04;;;;;;;34.60;19.90;;;;;;;-6.69;79.78;100661.96;105876;1254;61038;-81
2023/12/07 07:09:32;;;;;;;40.00;21.80;;;;;;;-6.66;79.87;100658.44;105917;1254;73043;-81
2023/12/07 07:12:00;;;;;;;34.30;21.00;;;;;;;-6.66;79.81;100660.52;105997;1255;70091;-81
2023/12/07 07:14:28;;;;;;;35.80;20.80;;;;;;;-6.65;79.89;100661.02;105928;1260;72718;-80
2023/12/07 07:16:55;;;;;;;38.30;21.70;;;;;;;-6.65;79.72;100666.34;105889;1257;62026;-79
2023/12/07 07:19:23;;;;;;;45.70;23.30;;;;;;;-6.68;79.26;100669.34;105889;1257;60582;-79
2023/12/07 07:21:51;;;;;;;40.00;22.50;;;;;;;-6.73;79.33;100671.88;105873;1257;72723;-78
2023/12/07 07:24:18;;;;;;;39.50;22.80;;;;;;;-6.75;79.24;100673.99;105806;1258;69101;-80
2023/12/07 07:26:46;;;;;;;43.00;23.60;;;;;;;-6.76;79.46;100673.83;105805;1259;72694;-79
2023/12/07 07:29:13;;;;;;;39.30;22.60;;;;;;;-6.64;78.94;100668.90;105916;1254;61754;-79
2023/12/07 07:31:40;;;;;;;39.70;22.20;;;;;;;-6.51;78.81;100670.66;105758;1254;60949;-78
2023/12/07 07:34:08;;;;;;;42.40;23.30;;;;;;;-6.48;78.88;100670.59;105791;1255;73856;-79
2023/12/07 07:36:39;;;;;;;35.80;21.00;;;;;;;-6.50;78.81;100673.40;105791;1259;70399;-79
2023/12/07 07:39:07;;;;;;;39.10;22.70;;;;;;;-6.52;78.73;100669.98;105906;1260;71367;-79
2023/12/07 07:41:36;;;;;;;37.60;22.20;;;;;;;-6.52;78.90;100664.65;105887;1255;60417;-79
2023/12/07 07:44:04;;;;;;;42.20;23.30;;;;;;;-6.51;78.90;100663.95;105992;1260;60498;-79
2023/12/07 07:46:31;;;;;;;35.60;21.60;;;;;;;-6.50;78.79;100663.73;105875;1257;72687;-78
2023/12/07 07:48:59;;;;;;;36.50;21.70;;;;;;;-6.50;78.87;100664.79;105903;1258;71398;-79
2023/12/07 07:51:27;;;;;;;38.80;21.00;;;;;;;-6.48;78.72;100671.43;105933;1255;71394;-79
2023/12/07 07:53:54;;;;;;;36.00;21.20;;;;;;;-6.35;78.33;100671.48;105864;1259;62167;-79
2023/12/07 07:56:25;;;;;;;39.60;21.30;;;;;;;-6.25;77.79;100672.94;105885;1253;60538;-79
2023/12/07 07:58:53;;;;;;;37.10;22.10;;;;;;;-6.24;78.15;100673.98;105785;1254;74787;-79
2023/12/07 08:01:21;;;;;;;38.20;21.80;;;;;;;-6.23;78.28;100679.97;105857;1254;71904;-79
2023/12/07 08:03:49;;;;;;;37.10;21.60;;;;;;;-6.21;78.30;100684.92;105966;1259;71395;-79
2023/12/07 08:06:16;;;;;;;38.50;21.20;;;;;;;-6.21;78.17;100689.22;105991;1255;60482;-80
2023/12/07 08:08:44;;;;;;;37.80;20.80;;;;;;;-6.22;78.22;100692.88;105861;1254;60485;-80
2023/12/07 08:11:14;;;;;;;38.40;22.30;;;;;;;-6.17;78.33;100697.21;106086;1260;72634;-80
2023/12/07 08:13:42;;;;;;;40.90;21.30;;;;;;;-6.15;78.21;100701.15;106271;1257;70148;-79
2023/12/07 08:16:09;;;;;;;37.60;21.70;;;;;;;-6.04;77.73;100705.86;106085;1257;71393;-81
2023/12/07 08:18:37;;;;;;;34.90;20.80;;;;;;;-5.89;77.36;100713.76;105957;1254;60538;-79
2023/12/07 08:21:08;;;;;;;37.10;21.90;;;;;;;-5.85;77.65;100717.06;105985;1259;61025;-79
2023/12/07 08:23:36;;;;;;;40.10;21.40;;;;;;;-5.83;77.67;100712.54;106156;1253;72595;-79
2023/12/07 08:26:03;;;;;;;37.50;21.50;;;;;;;-5.77;77.80;100719.30;106849;1257;68943;-78
2023/12/07 08:28:31;;;;;;;39.50;23.20;;;;;;;-5.76;77.70;100717.00;106855;1257;72607;-79
2023/12/07 08:30:58;;;;;;;38.00;22.50;;;;;;;-5.74;77.44;100719.39;107608;1254;62159;-80
2023/12/07 08:33:26;;;;;;;36.60;21.60;;;;;;;-5.75;77.46;100720.10;107705;1253;60226;-77
2023/12/07 08:35:55;;;;;;;38.70;22.30;;;;;;;-5.75;77.38;100725.79;106036;1255;73922;-78
2023/12/07 08:38:22;;;;;;;43.80;23.40;;;;;;;-5.79;77.13;100730.73;105983;1254;69997;-80
2023/12/07 08:40:50;;;;;;;39.00;23.10;;;;;;;-5.73;76.78;100730.56;106011;1254;71413;-79
2023/12/07 08:43:22;;;;;;;38.10;22.00;;;;;;;-5.64;76.46;100725.34;106018;1254;60592;-79
2023/12/07 08:45:51;;;;;;;37.10;22.50;;;;;;;-5.69;76.42;100723.56;106235;1253;60648;-79
2023/12/07 08:48:22;;;;;;;36.30;22.00;;;;;;;-5.76;76.62;100724.60;105989;1254;73942;-78
2023/12/07 08:50:51;;;;;;;39.80;23.20;;;;;;;-5.77;77.26;100727.39;105908;1254;68740;-75
2023/12/07 08:53:18;;;;;;;32.80;21.10;;;;;;;-5.78;77.14;100722.05;106157;1255;72934;-77
2023/12/07 08:55:46;;;;;;;44.60;24.00;;;;;;;-5.79;77.47;100721.93;106048;1260;60395;-78
2023/12/07 08:58:14;;;;;;;40.50;22.50;;;;;;;-5.79;77.49;100718.48;105936;1259;60345;-77
2023/12/07 09:00:41;;;;;;;41.40;24.20;;;;;;;-5.81;77.46;100718.52;105778;1261;76057;-78
2023/12/07 09:03:09;;;;;;;44.40;23.30;;;;;;;-5.85;77.32;100717.77;106032;1254;72651;-79
2023/12/07 09:05:37;;;;;;;40.80;23.20;;;;;;;-5.77;77.11;100716.18;105696;1258;72995;-77
2023/12/07 09:08:06;;;;;;;36.70;21.70;;;;;;;-5.67;76.78;100714.02;105895;1258;60527;-78
2023/12/07 09:10:34;;;;;;;41.90;22.80;;;;;;;-5.65;77.17;100710.52;106116;1255;60415;-76
2023/12/07 09:13:02;;;;;;;37.70;22.90;;;;;;;-5.64;77.48;100705.67;105896;1254;73950;-77
2023/12/07 09:15:29;;;;;;;40.50;23.40;;;;;;;-5.64;77.79;100705.67;105860;1260;69212;-80
2023/12/07 09:17:57;;;;;;;38.90;24.10;;;;;;;-5.65;77.89;100703.08;106003;1260;71600;-78
2023/12/07 09:20:25;;;;;;;39.60;23.20;;;;;;;-5.64;77.82;100704.45;106163;1254;60559;-80
2023/12/07 09:22:54;;;;;;;38.50;24.40;;;;;;;-5.65;77.92;100701.89;106023;1254;305214;-79
2023/12/07 09:27:20;;;;;;;39.60;21.40;;;;;;;-5.58;77.87;100695.66;103673;1286;600347;-80
2023/12/07 09:29:48;;;;;;;38.80;23.40;;;;;;;-5.47;77.48;100695.34;104960;1267;61763;-79
2023/12/07 09:32:15;;;;;;;35.70;22.20;;;;;;;-5.42;77.43;100693.31;105281;1266;59299;-77
2023/12/07 09:34:47;;;;;;;41.30;23.40;;;;;;;-5.47;77.45;100695.89;105896;1251;71229;-77
2023/12/07 09:37:16;;;;;;;37.40;22.10;;;;;;;-5.50;77.84;100697.33;105853;1258;69216;-75
2023/12/07 09:39:43;;;;;;;43.40;24.80;;;;;;;-5.49;78.01;100689.73;105906;1257;72964;-76
2023/12/07 09:42:11;;;;;;;40.20;23.00;;;;;;;-5.52;78.09;100689.09;105826;1257;336000;-78
2023/12/07 09:44:39;;;;;;;38.40;23.20;;;;;;;-5.56;78.07;100679.54;105959;1251;60346;-75
2023/12/07 09:47:07;;;;;;;40.60;23.10;;;;;;;-5.60;78.08;100678.95;106085;1251;71890;-78
2023/12/07 09:49:34;;;;;;;41.40;24.00;;;;;;;-5.53;77.97;100680.15;105995;1257;69389;-78
2023/12/07 09:52:02;;;;;;;38.00;22.30;;;;;;;-5.41;77.96;100677.57;106013;1252;74245;-77
2023/12/07 09:54:29;;;;;;;37.20;22.10;;;;;;;-5.40;78.06;100674.09;106047;1257;59734;-76
2023/12/07 09:56:57;;;;;;;41.30;23.40;;;;;;;-5.46;78.28;100674.27;106052;1257;60497;-75
2023/12/07 09:59:24;;;;;;;44.80;25.10;;;;;;;-5.53;78.37;100674.10;106192;1251;71782;-77
2023/12/07 10:01:52;;;;;;;41.00;23.80;;;;;;;-5.57;78.67;100670.23;105989;1251;69451;-76
2023/12/07 10:04:22;;;;;;;39.50;23.10;;;;;;;-5.59;78.79;100670.64;106563;1253;71355;-78
2023/12/07 10:06:50;;;;;;;45.00;24.50;;;;;;;-5.62;78.79;100672.63;108339;1251;59634;-77
2023/12/07 10:09:21;;;;;;;38.20;22.80;;;;;;;-5.65;78.82;100667.21;106339;1251;60541;-78
2023/12/07 10:12:03;;;;;;;37.80;22.10;;;;;;;-5.57;78.65;100666.96;106164;1255;73137;-80
2023/12/07 10:14:31;;;;;;;42.20;24.70;;;;;;;-5.46;78.47;100671.85;106338;1251;72411;-78
2023/12/07 10:16:59;;;;;;;40.10;24.10;;;;;;;-5.44;79.08;100668.85;106165;1251;71800;-77
2023/12/07 10:19:27;;;;;;;38.70;23.10;;;;;;;-5.41;79.56;100665.31;106089;1257;59619;-76
2023/12/07 10:21:59;;;;;;;44.90;24.50;;;;;;;-5.40;79.60;100664.06;106205;1250;59580;-78
2023/12/07 10:24:28;;;;;;;42.40;23.50;;;;;;;-5.40;79.57;100661.50;106220;1251;75978;-77
2023/12/07 10:26:56;;;;;;;38.50;23.20;;;;;;;-5.44;79.45;100658.67;106221;1256;71335;-77
2023/12/07 10:29:30;;;;;;;43.20;25.20;;;;;;;-5.48;79.44;100657.94;106236;1257;73005;-76
2023/12/07 10:32:02;;;;;;;44.80;25.20;;;;;;;-5.50;79.49;100656.77;107600;1251;61688;-80
2023/12/07 10:34:33;;;;;;;38.50;22.70;;;;;;;-5.39;79.46;100654.55;107223;1255;62252;-79
2023/12/07 10:37:00;;;;;;;39.30;24.20;;;;;;;-5.27;79.37;100651.62;107258;1251;70726;-82
2023/12/07 10:39:28;;;;;;;41.90;25.10;;;;;;;-5.26;79.34;100650.89;107319;1255;69520;-79
2023/12/07 10:42:02;;;;;;;42.00;23.80;;;;;;;-5.30;79.62;100646.86;107025;1251;72472;-82
2023/12/07 10:44:30;;;;;;;45.80;24.40;;;;;;;-5.29;80.04;100647.53;106217;1256;59727;-79
2023/12/07 10:46:58;;;;;;;41.40;24.30;;;;;;;-5.30;80.09;100654.13;106165;1251;60340;-79
2023/12/07 10:49:26;;;;;;;41.90;24.30;;;;;;;-5.31;80.30;100647.76;106252;1251;74235;-81
2023/12/07 10:52:06;;;;;;;45.30;24.40;;;;;;;-5.33;80.13;100646.44;106216;1251;70369;-83
2023/12/07 10:55:03;;;;;;;39.10;23.50;;;;;;;-5.24;79.91;100644.27;106237;1250;71496;-81
2023/12/07 10:57:32;;;;;;;39.70;23.10;;;;;;;-5.14;79.95;100640.86;106276;1251;59707;-80
2023/12/07 11:00:00;;;;;;;36.90;22.30;;;;;;;-5.15;80.32;100644.52;106177;1251;61201;-78
2023/12/07 11:02:28;;;;;;;36.90;23.20;;;;;;;-5.16;80.35;100647.48;106229;1257;75354;-81
2023/12/07 11:04:59;;;;;;;40.40;23.40;;;;;;;-5.20;80.37;100637.75;106080;1256;71235;-78
2023/12/07 11:07:30;;;;;;;38.00;24.10;;;;;;;-5.27;80.21;100637.63;105850;1255;72817;-76
2023/12/07 11:10:28;;;;;;;39.60;22.70;;;;;;;-5.33;80.33;100642.27;105906;1259;59574;-76